Time;durP1;ratioP1;P1;durP2;ratioP2;P2;SDS_P1;SDS_P2;PMS_P1;PMS_P2;Temp;Humidity;BMP_temperature;BMP_pressure;BME280_temperature;BME280_humidity;BME280_pressure;Samples;Min_cycle;Max_cycle;Signal;HPM_P1;HPM_P2
2021/03/23 00:02:52;;;;;;;5.77;3.43;;;;;;;7.53;67.28;102270.31;6196077;28;20324;-56
2021/03/23 00:06:17;;;;;;;7.90;4.00;;;;;;;7.40;67.25;102268.22;6199785;28;20225;-57
2021/03/23 00:09:38;;;;;;;4.03;2.87;;;;;;;7.75;66.59;102268.28;6205624;28;20233;-56
2021/03/23 00:12:58;;;;;;;8.07;3.30;;;;;;;7.48;66.98;102267.63;6206425;28;20225;-56
2021/03/23 00:16:21;;;;;;;5.43;4.23;;;;;;;7.65;66.74;102270.63;6198186;28;20248;-56
2021/03/23 00:19:42;;;;;;;5.33;3.30;;;;;;;7.68;66.60;102268.13;6199209;28;20324;-56
2021/03/23 00:23:02;;;;;;;10.13;3.87;;;;;;;7.87;65.50;102263.41;6203718;28;20308;-53
2021/03/23 00:26:25;;;;;;;4.27;3.20;;;;;;;7.79;65.26;102272.72;6194108;28;20229;-57
2021/03/23 00:29:46;;;;;;;5.50;3.53;;;;;;;7.67;65.73;102268.94;6199612;28;20234;-56
2021/03/23 00:33:07;;;;;;;7.70;3.60;;;;;;;7.65;65.26;102270.63;6199579;28;20233;-56
2021/03/23 00:36:32;;;;;;;6.57;3.67;;;;;;;7.77;65.17;102269.19;6199979;28;20347;-55
2021/03/23 00:39:53;;;;;;;6.50;3.10;;;;;;;7.79;65.14;102270.09;6192810;28;20230;-56
2021/03/23 00:43:14;;;;;;;4.50;2.63;;;;;;;8.06;64.14;102268.22;6206604;28;20233;-56
2021/03/23 00:46:35;;;;;;;3.43;2.80;;;;;;;7.93;64.55;102275.66;6198636;28;20236;-52
2021/03/23 00:49:55;;;;;;;7.03;3.03;;;;;;;7.48;65.30;102282.25;6193295;28;20289;-55
2021/03/23 00:53:17;;;;;;;6.23;2.60;;;;;;;7.50;65.29;102280.59;6201106;28;20575;-58
2021/03/23 00:56:37;;;;;;;3.77;2.80;;;;;;;7.38;65.63;102275.94;6204201;28;20225;-56
2021/03/23 00:59:58;;;;;;;7.07;3.50;;;;;;;7.49;65.35;102265.88;6202984;28;20305;-56
2021/03/23 01:03:19;;;;;;;3.30;2.70;;;;;;;7.77;65.14;102266.59;6209611;28;20233;-54
2021/03/23 01:06:39;;;;;;;4.73;3.00;;;;;;;7.49;65.71;102273.66;6197117;28;22044;-57
2021/03/23 01:10:00;;;;;;;6.43;2.17;;;;;;;7.76;64.94;102257.97;6196218;28;20678;-54
2021/03/23 01:13:20;;;;;;;4.30;2.57;;;;;;;7.52;65.57;102260.75;6198445;28;20338;-55
2021/03/23 01:16:41;;;;;;;2.27;1.90;;;;;;;7.68;64.72;102255.16;6204502;28;20240;-56
2021/03/23 01:20:03;;;;;;;3.60;1.60;;;;;;;7.35;65.61;102255.16;6197682;28;20409;-56
2021/03/23 01:23:23;;;;;;;4.27;1.87;;;;;;;7.30;65.87;102260.19;6197556;28;20237;-55
2021/03/23 01:26:44;;;;;;;6.07;2.60;;;;;;;7.42;65.84;102248.41;6201961;28;20236;-56
2021/03/23 01:30:06;;;;;;;4.00;2.53;;;;;;;7.38;65.56;102239.66;6202369;28;20316;-55
2021/03/23 01:33:27;;;;;;;8.40;2.30;;;;;;;7.40;65.64;102238.00;6198878;28;20335;-55
2021/03/23 01:36:48;;;;;;;3.23;2.40;;;;;;;7.48;64.98;102233.00;6203864;28;20273;-54
2021/03/23 01:40:10;;;;;;;4.13;2.77;;;;;;;7.06;66.36;102233.63;6205530;28;20651;-56
2021/03/23 01:43:34;;;;;;;5.50;2.40;;;;;;;6.85;66.63;102234.75;6193716;28;20673;-55
2021/03/23 01:46:55;;;;;;;3.40;2.37;;;;;;;7.19;66.46;102235.72;6202265;28;20647;-55
2021/03/23 01:50:18;;;;;;;5.43;2.43;;;;;;;7.38;64.98;102238.78;6200823;28;20233;-55
2021/03/23 01:53:41;;;;;;;2.73;2.43;;;;;;;7.10;65.74;102238.91;6209245;28;20221;-52
2021/03/23 01:57:07;;;;;;;4.43;2.20;;;;;;;7.14;65.67;102245.06;6200949;28;20533;-52
2021/03/23 02:00:27;;;;;;;8.23;2.53;;;;;;;7.21;65.25;102241.81;6200795;28;20521;-55
2021/03/23 02:03:49;;;;;;;4.63;2.23;;;;;;;7.13;65.69;102245.91;6204236;28;20261;-56
2021/03/23 02:07:10;;;;;;;7.13;4.07;;;;;;;7.53;64.26;102256.47;6198173;28;20630;-56
2021/03/23 02:10:31;;;;;;;8.17;2.93;;;;;;;7.60;63.44;102256.69;6199946;28;20341;-52
2021/03/23 02:13:53;;;;;;;5.07;2.77;;;;;;;7.35;64.61;102242.19;6205095;28;20230;-54
2021/03/23 02:17:19;;;;;;;5.53;3.17;;;;;;;6.89;65.16;102244.38;6202606;28;20410;-53
2021/03/23 02:21:04;;;;;;;3.83;1.97;;;;;;;7.25;64.87;102240.16;6206298;28;20316;-54
2021/03/23 02:24:25;;;;;;;4.40;2.07;;;;;;;7.33;64.11;102232.59;6203320;28;20237;-56
2021/03/23 02:27:46;;;;;;;4.00;3.00;;;;;;;7.01;65.00;102238.66;6199680;28;20229;-54
2021/03/23 02:31:06;;;;;;;4.63;2.00;;;;;;;7.12;64.45;102236.38;6205243;28;20480;-55
2021/03/23 02:34:26;;;;;;;3.47;2.00;;;;;;;7.23;64.18;102240.16;6204256;28;20534;-53
2021/03/23 02:37:48;;;;;;;4.90;2.10;;;;;;;6.92;64.33;102240.09;6197691;28;20702;-53
2021/03/23 02:41:08;;;;;;;2.97;2.30;;;;;;;7.16;64.09;102242.53;6177851;28;20221;-57
2021/03/23 02:44:36;;;;;;;4.87;2.47;;;;;;;7.28;63.72;102242.84;6203363;28;20432;-53
2021/03/23 02:47:57;;;;;;;3.60;1.87;;;;;;;7.16;63.64;102253.75;6198625;28;20236;-53
2021/03/23 02:51:18;;;;;;;3.40;2.40;;;;;;;6.96;64.68;102252.31;6200287;28;20229;-54
2021/03/23 02:54:40;;;;;;;2.30;2.10;;;;;;;7.39;63.09;102235.38;6197812;28;20832;-53
2021/03/23 02:58:01;;;;;;;11.50;2.13;;;;;;;7.22;63.62;102243.56;6212502;28;20256;-54
2021/03/23 03:01:21;;;;;;;4.43;2.00;;;;;;;7.09;64.00;102244.06;6198514;28;20276;-56
2021/03/23 03:04:43;;;;;;;6.60;2.63;;;;;;;6.54;66.10;102235.56;6205903;28;20229;-56
2021/03/23 03:08:04;;;;;;;5.33;2.70;;;;;;;6.38;66.84;102239.41;6203578;28;20230;-54
2021/03/23 03:11:26;;;;;;;6.27;2.77;;;;;;;6.66;66.03;102240.22;6200643;28;20324;-56
2021/03/23 03:14:46;;;;;;;3.57;3.00;;;;;;;6.59;66.23;102240.88;6197240;28;20264;-57
2021/03/23 03:18:07;;;;;;;4.87;2.73;;;;;;;6.70;65.50;102242.94;6199594;28;20240;-54
2021/03/23 03:21:27;;;;;;;3.53;2.50;;;;;;;7.29;64.10;102255.00;6199984;28;20260;-56
2021/03/23 03:24:47;;;;;;;6.37;3.10;;;;;;;6.77;65.31;102249.19;6198781;28;20238;-56
2021/03/23 03:28:09;;;;;;;3.17;2.30;;;;;;;7.06;64.53;102251.75;6203664;28;20332;-57
2021/03/23 03:31:31;;;;;;;4.73;2.70;;;;;;;6.36;66.71;102251.41;6196431;28;20234;-56
2021/03/23 03:34:51;;;;;;;4.20;2.57;;;;;;;6.80;65.46;102241.50;6196509;28;20588;-57
2021/03/23 03:38:12;;;;;;;3.87;2.90;;;;;;;6.66;66.09;102241.09;6198631;28;20236;-55
2021/03/23 03:41:34;;;;;;;4.90;2.87;;;;;;;6.89;65.11;102244.38;6200414;28;20528;-53
2021/03/23 03:44:55;;;;;;;3.40;2.73;;;;;;;6.40;67.47;102248.09;6191996;28;20237;-54
2021/03/23 03:48:16;;;;;;;5.37;2.60;;;;;;;6.25;67.52;102247.59;6197019;28;20266;-54
2021/03/23 03:51:36;;;;;;;6.50;2.40;;;;;;;6.34;66.84;102252.19;6194839;28;20234;-51
2021/03/23 03:54:57;;;;;;;2.60;2.40;;;;;;;6.33;67.05;102256.47;6199594;28;20246;-54
2021/03/23 03:58:17;;;;;;;4.57;2.97;;;;;;;6.21;67.51;102245.75;6199104;28;20634;-54
2021/03/23 04:01:38;;;;;;;6.33;4.00;;;;;;;6.56;66.74;102252.03;6206330;28;20340;-55
2021/03/23 04:04:59;;;;;;;4.90;3.03;;;;;;;6.11;68.37;102250.63;6199041;28;20242;-55
2021/03/23 04:08:22;;;;;;;3.60;3.00;;;;;;;6.22;68.23;102251.00;6202679;28;20241;-54
2021/03/23 04:11:43;;;;;;;5.50;3.30;;;;;;;5.66;70.13;102239.59;6200709;28;20233;-55
2021/03/23 04:15:06;;;;;;;3.67;3.20;;;;;;;6.19;68.61;102248.28;6193118;28;20232;-53
2021/03/23 04:18:29;;;;;;;5.27;3.13;;;;;;;6.41;68.05;102252.41;6195621;28;20229;-54
2021/03/23 04:21:49;;;;;;;4.37;3.70;;;;;;;5.67;70.59;102246.53;6200121;28;20247;-54
2021/03/23 04:25:11;;;;;;;7.47;3.03;;;;;;;6.18;68.88;102245.66;6204464;28;20614;-55
2021/03/23 04:28:32;;;;;;;4.60;3.50;;;;;;;6.39;68.06;102256.66;6202557;28;20245;-52
2021/03/23 04:31:52;;;;;;;4.47;2.93;;;;;;;6.41;67.46;102257.59;6202014;28;20230;-54
2021/03/23 04:35:24;;;;;;;10.63;4.10;;;;;;;6.28;68.46;102256.34;6202964;28;20233;-56
2021/03/23 04:38:44;;;;;;;6.73;4.53;;;;;;;6.03;69.18;102249.50;6197978;28;20221;-56
2021/03/23 04:42:06;;;;;;;5.00;4.50;;;;;;;6.10;68.79;102240.22;6192958;28;20331;-57
2021/03/23 04:45:26;;;;;;;4.80;3.87;;;;;;;6.21;68.54;102244.03;6209319;28;20237;-54
2021/03/23 04:48:47;;;;;;;6.87;3.67;;;;;;;5.81;70.44;102247.00;6199373;28;20245;-56
2021/03/23 04:52:08;;;;;;;5.57;5.03;;;;;;;5.98;69.71;102242.44;6206432;28;20225;-55
2021/03/23 04:55:29;;;;;;;4.70;3.80;;;;;;;6.10;69.59;102237.66;6199773;28;20244;-53
2021/03/23 04:58:50;;;;;;;6.83;4.23;;;;;;;6.01;69.87;102235.66;6208189;28;20234;-54
2021/03/23 05:02:11;;;;;;;10.80;6.00;;;;;;;5.83;70.98;102242.75;6203720;28;20229;-54
2021/03/23 05:05:31;;;;;;;6.87;3.73;;;;;;;5.79;71.73;102235.72;6200432;28;20245;-56
2021/03/23 05:08:54;;;;;;;10.37;4.87;;;;;;;5.96;71.20;102234.63;6206683;28;20630;-55
2021/03/23 05:12:14;;;;;;;5.83;4.57;;;;;;;5.83;71.71;102229.84;6212859;28;20230;-56
2021/03/23 05:15:34;;;;;;;6.17;4.33;;;;;;;5.95;71.71;102219.00;6201189;28;20233;-54
2021/03/23 05:18:54;;;;;;;6.97;4.77;;;;;;;5.80;71.46;102215.13;6207178;28;20225;-51
2021/03/23 05:22:15;;;;;;;9.03;4.97;;;;;;;6.02;70.60;102219.28;6207826;28;20351;-56
2021/03/23 05:25:36;;;;;;;7.37;4.73;;;;;;;5.97;70.46;102226.03;6211833;28;20323;-54
2021/03/23 05:28:57;;;;;;;6.20;5.33;;;;;;;5.99;70.60;102218.31;6204838;28;20234;-56
2021/03/23 05:32:17;;;;;;;6.27;4.30;;;;;;;6.05;70.60;102218.53;6207283;28;20643;-56
2021/03/23 05:35:38;;;;;;;4.43;3.90;;;;;;;5.77;71.28;102212.41;6197117;28;20372;-56
2021/03/23 05:38:58;;;;;;;5.17;4.63;;;;;;;6.02;70.12;102214.13;6200660;28;20237;-56
2021/03/23 05:42:28;;;;;;;10.10;5.13;;;;;;;6.22;69.10;102222.53;6202281;28;20266;-55
2021/03/23 05:45:54;;;;;;;6.27;5.23;;;;;;;6.18;69.41;102223.22;6198922;28;20660;-52
2021/03/23 05:49:32;;;;;;;16.60;6.10;;;;;;;6.21;69.60;102217.31;6197404;28;20268;-56
2021/03/23 05:53:05;;;;;;;7.10;4.80;;;;;;;6.09;68.85;102221.25;6195445;28;20233;-53
2021/03/23 05:56:28;;;;;;;7.20;5.60;;;;;;;5.87;70.61;102223.94;6201743;28;20236;-56
2021/03/23 05:59:55;;;;;;;9.63;5.93;;;;;;;5.67;70.94;102221.56;6204005;28;20631;-55
2021/03/23 06:03:19;;;;;;;6.50;4.63;;;;;;;6.15;69.10;102222.28;6197630;28;20256;-56
2021/03/23 06:06:45;;;;;;;10.37;6.37;;;;;;;6.13;69.52;102213.56;6198127;28;20323;-56
2021/03/23 06:10:14;;;;;;;6.13;5.23;;;;;;;5.89;70.47;102218.00;6200209;28;20233;-55
2021/03/23 06:13:44;;;;;;;8.53;6.20;;;;;;;6.40;68.50;102222.22;6194300;28;20229;-56
2021/03/23 06:17:12;;;;;;;6.90;6.03;;;;;;;6.31;69.07;102233.13;6188889;28;20229;-56
2021/03/23 06:20:45;;;;;;;7.40;5.50;;;;;;;6.43;69.12;102243.00;6201825;28;20562;-53
2021/03/23 06:24:12;;;;;;;10.70;7.03;;;;;;;6.62;68.47;102238.38;6208125;28;20233;-55
2021/03/23 06:27:41;;;;;;;13.03;8.10;;;;;;;6.37;68.79;102240.22;6198421;28;20583;-56
2021/03/23 06:31:06;;;;;;;10.37;6.60;;;;;;;6.04;70.51;102235.72;6193690;28;20249;-56
2021/03/23 06:34:30;;;;;;;9.90;7.60;;;;;;;6.18;70.26;102236.16;6197615;28;20229;-57
2021/03/23 06:37:50;;;;;;;12.50;8.67;;;;;;;6.05;72.39;102240.09;6195688;28;20511;-58
2021/03/23 06:41:14;;;;;;;12.57;7.87;;;;;;;6.67;71.87;102245.47;6189649;28;21576;-58
2021/03/23 06:44:36;;;;;;;10.30;8.37;;;;;;;6.35;70.91;102249.66;6186923;28;20559;-54
2021/03/23 06:48:18;;;;;;;14.03;8.87;;;;;;;6.01;71.67;102246.00;6202814;28;20233;-55
2021/03/23 06:51:59;;;;;;;11.50;8.90;;;;;;;6.23;70.79;102244.09;6196168;28;20233;-57
2021/03/23 06:55:24;;;;;;;12.80;9.83;;;;;;;6.24;71.46;102246.75;6201181;28;20265;-56
2021/03/23 06:58:45;;;;;;;12.70;9.20;;;;;;;6.18;72.03;102241.34;6196827;28;20672;-57
2021/03/23 07:02:29;;;;;;;13.37;10.03;;;;;;;6.20;71.39;102250.03;6198949;28;20233;-58
2021/03/23 07:05:52;;;;;;;12.27;10.27;;;;;;;6.68;70.17;102248.91;6200188;28;20265;-57
2021/03/23 07:09:19;;;;;;;19.07;12.00;;;;;;;6.88;69.25;102259.84;6204432;28;20633;-57
2021/03/23 07:12:42;;;;;;;12.37;9.97;;;;;;;6.88;69.06;102263.34;6201450;28;20229;-58
2021/03/23 07:16:23;;;;;;;17.37;10.70;;;;;;;6.50;70.80;102265.66;6206976;28;20331;-57
2021/03/23 07:19:46;;;;;;;17.33;9.50;;;;;;;6.95;68.75;102259.22;6196026;28;20238;-56
2021/03/23 07:23:28;;;;;;;22.03;10.37;;;;;;;6.48;71.26;102262.13;6199867;28;20352;-55
2021/03/23 07:26:59;;;;;;;13.93;10.37;;;;;;;6.77;69.92;102258.69;6200055;28;20241;-56
2021/03/23 07:30:30;;;;;;;14.03;10.53;;;;;;;7.03;69.52;102264.63;6199104;28;20508;-57
2021/03/23 07:34:07;;;;;;;18.13;10.60;;;;;;;6.49;71.47;102266.50;6197833;28;20618;-56
2021/03/23 07:37:37;;;;;;;18.53;10.60;;;;;;;6.53;71.17;102264.00;6187347;28;20323;-56
2021/03/23 07:40:59;;;;;;;20.50;11.93;;;;;;;6.59;71.88;102261.56;6199727;28;20229;-54
2021/03/23 07:44:36;;;;;;;21.17;13.07;;;;;;;6.85;70.96;102265.84;6200159;28;20575;-57
2021/03/23 07:48:03;;;;;;;16.73;12.10;;;;;;;6.61;71.75;102273.75;6199279;28;20229;-56
2021/03/23 07:51:29;;;;;;;14.67;11.50;;;;;;;6.33;72.77;102272.00;6194859;28;20737;-58
2021/03/23 07:54:50;;;;;;;22.70;11.83;;;;;;;6.83;70.63;102275.28;6191892;28;20327;-56
2021/03/23 07:58:32;;;;;;;19.30;13.20;;;;;;;7.09;70.58;102270.88;6194377;28;20225;-55
2021/03/23 08:02:02;;;;;;;23.80;16.30;;;;;;;6.58;72.46;102278.84;6197294;28;20320;-54
2021/03/23 08:05:31;;;;;;;16.30;13.03;;;;;;;7.32;69.52;102282.69;6193932;28;20267;-58
2021/03/23 08:09:11;;;;;;;17.87;13.60;;;;;;;6.96;70.74;102281.69;6195887;28;20240;-56
2021/03/23 08:12:54;;;;;;;20.83;15.07;;;;;;;6.66;71.83;102279.06;6202612;28;20474;-56
2021/03/23 08:16:40;;;;;;;19.80;14.50;;;;;;;6.64;72.26;102278.13;6203400;28;20329;-55
2021/03/23 08:20:21;;;;;;;22.90;14.90;;;;;;;6.66;72.97;102279.94;6196274;28;20225;-54
2021/03/23 08:24:07;;;;;;;18.53;15.53;;;;;;;6.85;72.12;102271.00;6198614;28;20620;-56
2021/03/23 08:27:51;;;;;;;18.50;15.10;;;;;;;7.05;71.42;102276.75;6196255;28;20232;-56
2021/03/23 08:31:35;;;;;;;21.60;14.17;;;;;;;6.79;72.16;102282.91;6195230;28;20261;-53
2021/03/23 08:35:32;;;;;;;21.07;15.37;;;;;;;6.77;72.74;102276.81;6195692;28;20225;-56
2021/03/23 08:39:02;;;;;;;17.97;14.67;;;;;;;6.28;74.21;102274.47;6191309;28;20228;-57
2021/03/23 08:42:25;;;;;;;21.03;14.50;;;;;;;6.55;73.85;102285.63;6198872;28;20598;-57
2021/03/23 08:45:49;;;;;;;20.87;14.27;;;;;;;7.13;71.00;102287.34;6202219;28;20561;-59
2021/03/23 08:49:18;;;;;;;15.87;14.00;;;;;;;7.19;71.09;102292.72;6204532;28;20236;-58
2021/03/23 08:52:42;;;;;;;17.43;11.50;;;;;;;7.20;70.87;102291.00;6208530;28;20236;-57
2021/03/23 08:56:04;;;;;;;23.03;15.80;;;;;;;7.36;70.56;102287.13;6204463;28;20229;-59
2021/03/23 08:59:48;;;;;;;16.13;12.43;;;;;;;6.95;72.02;102287.69;6204418;28;20610;-56
2021/03/23 09:03:37;;;;;;;18.00;13.73;;;;;;;7.15;70.70;102295.16;6204446;28;20225;-58
2021/03/23 09:07:00;;;;;;;18.13;13.27;;;;;;;7.04;71.10;102290.56;6201080;28;20320;-54
2021/03/23 09:10:57;;;;;;;20.00;14.57;;;;;;;6.80;72.35;102300.19;6202845;28;20237;-56
2021/03/23 09:14:23;;;;;;;20.23;15.87;;;;;;;7.25;71.03;102304.94;6205231;28;20591;-59
2021/03/23 09:17:55;;;;;;;21.90;15.20;;;;;;;7.32;71.02;102295.66;6202454;28;20256;-57
2021/03/23 09:21:15;;;;;;;22.93;15.30;;;;;;;7.44;70.68;102290.78;6201790;28;20331;-54
2021/03/23 09:24:38;;;;;;;20.27;15.23;;;;;;;7.67;69.47;102302.66;6206961;28;20259;-56
2021/03/23 09:28:01;;;;;;;21.00;16.60;;;;;;;7.92;68.71;102312.81;6198298;28;20238;-56
2021/03/23 09:32:02;;;;;;;20.27;16.60;;;;;;;7.38;70.43;102326.91;6203991;28;20577;-57
2021/03/23 09:35:24;;;;;;;28.83;18.67;;;;;;;7.53;69.81;102316.09;6205938;28;20830;-57
2021/03/23 09:38:47;;;;;;;25.83;18.57;;;;;;;7.12;70.97;102319.28;6204227;28;20241;-58
2021/03/23 09:42:36;;;;;;;21.80;17.17;;;;;;;7.80;68.93;102321.16;6206623;28;20237;-57
2021/03/23 09:46:07;;;;;;;23.40;19.20;;;;;;;7.59;69.37;102332.69;6201198;28;20556;-59
2021/03/23 09:49:41;;;;;;;22.43;18.23;;;;;;;7.66;71.14;102323.38;6194600;28;20498;-55
2021/03/23 09:53:08;;;;;;;23.77;18.77;;;;;;;8.17;68.88;102327.28;6199238;28;20607;-56
2021/03/23 09:56:37;;;;;;;29.60;19.63;;;;;;;7.97;69.44;102332.84;6197150;28;20225;-58
2021/03/23 10:00:00;;;;;;;28.87;18.70;;;;;;;8.26;68.65;102324.94;6198347;28;20372;-54
2021/03/23 10:03:28;;;;;;;24.73;19.03;;;;;;;7.52;69.23;102322.13;6202820;28;20229;-53
2021/03/23 10:06:50;;;;;;;24.87;18.07;;;;;;;8.17;69.46;102322.09;6193561;28;20323;-56
2021/03/23 10:10:13;;;;;;;23.67;18.17;;;;;;;8.08;67.01;102317.53;6198945;28;20237;-55
2021/03/23 10:13:34;;;;;;;29.30;20.80;;;;;;;7.58;68.93;102320.59;6196768;28;20229;-56
2021/03/23 10:17:05;;;;;;;26.70;19.60;;;;;;;7.79;67.60;102329.75;6201472;28;20252;-57
2021/03/23 10:20:25;;;;;;;26.83;21.03;;;;;;;8.22;66.39;102330.84;6201353;28;20587;-52
2021/03/23 10:23:50;;;;;;;26.03;18.50;;;;;;;8.32;65.66;102331.97;6203852;28;20313;-57
2021/03/23 10:27:22;;;;;;;28.20;20.53;;;;;;;7.59;68.06;102335.28;6211488;28;20600;-57
2021/03/23 10:30:42;;;;;;;25.90;21.63;;;;;;;7.52;68.27;102332.47;6202980;28;20236;-57
2021/03/23 10:34:07;;;;;;;27.63;20.83;;;;;;;7.83;66.75;102348.06;6199558;28;20549;-56
2021/03/23 10:37:29;;;;;;;24.80;18.83;;;;;;;8.01;65.69;102339.88;6196398;28;20241;-57
2021/03/23 10:40:51;;;;;;;32.10;22.90;;;;;;;7.86;66.10;102349.84;6204071;28;20236;-56
2021/03/23 10:44:19;;;;;;;27.03;20.07;;;;;;;8.53;64.06;102326.44;6199347;28;20226;-54
2021/03/23 10:47:45;;;;;;;24.77;20.93;;;;;;;8.09;65.21;102345.25;6200122;28;20229;-56
2021/03/23 10:51:16;;;;;;;25.83;19.50;;;;;;;8.62;63.44;102337.91;6200468;28;20233;-55
2021/03/23 10:54:38;;;;;;;24.83;20.20;;;;;;;8.62;63.06;102343.13;6201003;28;20320;-57
2021/03/23 10:58:25;;;;;;;25.27;17.87;;;;;;;8.70;62.98;102337.22;6191699;28;20228;-58
2021/03/23 11:02:05;;;;;;;27.37;19.27;;;;;;;7.98;64.87;102338.91;6198847;28;20229;-56
2021/03/23 11:05:25;;;;;;;25.90;20.07;;;;;;;8.00;64.87;102345.88;6186538;28;20229;-57
2021/03/23 11:08:46;;;;;;;25.63;18.97;;;;;;;8.07;64.27;102336.56;6190519;28;20244;-58
2021/03/23 11:12:07;;;;;;;25.43;20.87;;;;;;;8.18;63.90;102331.63;6199275;28;20507;-56
2021/03/23 11:15:32;;;;;;;22.67;18.23;;;;;;;8.51;62.64;102325.53;6177792;28;20789;-57
2021/03/23 11:18:53;;;;;;;29.33;20.97;;;;;;;8.06;64.06;102340.88;6210662;28;20234;-56
2021/03/23 11:22:19;;;;;;;28.90;21.23;;;;;;;8.06;64.11;102335.69;6190214;28;20236;-58
2021/03/23 11:25:39;;;;;;;27.80;22.20;;;;;;;8.44;62.79;102327.13;6202142;28;20245;-57
2021/03/23 11:29:03;;;;;;;28.47;20.17;;;;;;;8.03;64.02;102330.41;6189015;28;20229;-61
2021/03/23 11:32:25;;;;;;;27.27;20.33;;;;;;;8.26;62.82;102328.41;6192242;28;20510;-58
2021/03/23 11:35:46;;;;;;;26.23;22.23;;;;;;;8.08;63.61;102320.13;6188175;28;20324;-55
2021/03/23 11:39:08;;;;;;;25.37;21.13;;;;;;;8.29;62.68;102322.38;6192420;28;20622;-57
2021/03/23 11:42:35;;;;;;;26.73;20.47;;;;;;;8.34;62.55;102313.00;6182883;28;20237;-56
2021/03/23 11:46:00;;;;;;;23.70;19.87;;;;;;;8.37;62.19;102319.97;6187355;28;20229;-55
2021/03/23 11:49:29;;;;;;;22.57;18.70;;;;;;;8.51;61.39;102312.56;6191989;28;20237;-55
2021/03/23 11:52:52;;;;;;;24.63;19.07;;;;;;;9.11;59.69;102316.47;6184186;28;20236;-56
2021/03/23 11:56:13;;;;;;;22.20;16.60;;;;;;;8.82;59.91;102315.03;6168595;28;20673;-56
2021/03/23 11:59:34;;;;;;;29.77;20.23;;;;;;;9.14;59.16;102320.00;6188606;28;20226;-52
2021/03/23 12:02:55;;;;;;;31.07;20.93;;;;;;;8.30;61.91;102313.78;6181300;28;20687;-58
2021/03/23 12:06:20;;;;;;;25.00;19.47;;;;;;;8.35;61.52;102306.09;6183385;28;20225;-57
2021/03/23 12:09:48;;;;;;;28.47;21.87;;;;;;;8.13;61.66;102322.88;6189309;28;20381;-56
2021/03/23 12:13:15;;;;;;;30.07;20.77;;;;;;;7.84;62.48;102328.19;6195214;28;20232;-57
2021/03/23 12:16:43;;;;;;;30.97;23.70;;;;;;;7.66;63.63;102324.25;6195848;28;20259;-58
2021/03/23 12:20:08;;;;;;;26.63;21.13;;;;;;;8.01;62.42;102316.53;6188034;28;20229;-57
2021/03/23 12:23:30;;;;;;;33.03;22.33;;;;;;;8.08;62.39;102328.81;6181750;28;20603;-55
2021/03/23 12:26:51;;;;;;;26.37;21.73;;;;;;;8.39;60.98;102316.56;6186099;28;20241;-55
2021/03/23 12:30:13;;;;;;;26.90;21.70;;;;;;;9.06;59.24;102321.59;6185648;28;20233;-57
2021/03/23 12:33:33;;;;;;;28.83;21.17;;;;;;;8.46;60.58;102321.13;6194834;28;20233;-58
2021/03/23 12:36:54;;;;;;;31.00;22.43;;;;;;;8.57;59.44;102317.88;6195646;28;22399;-56
2021/03/23 12:40:18;;;;;;;28.53;22.70;;;;;;;8.16;60.56;102317.72;6196133;28;20230;-57
2021/03/23 12:43:39;;;;;;;28.03;21.33;;;;;;;8.70;59.17;102309.53;6199035;28;20315;-56
2021/03/23 12:46:59;;;;;;;34.13;23.47;;;;;;;8.62;59.02;102301.56;6200069;28;20234;-58
2021/03/23 12:50:20;;;;;;;28.53;19.30;;;;;;;9.16;59.24;102309.66;6181426;28;20682;-56
2021/03/23 12:53:41;;;;;;;26.83;20.50;;;;;;;9.48;59.21;102299.91;6182185;28;20225;-52
2021/03/23 12:57:03;;;;;;;25.17;21.43;;;;;;;9.87;56.48;102296.28;6174327;28;20724;-53
2021/03/23 13:00:28;;;;;;;27.70;20.97;;;;;;;9.06;58.12;102296.47;6176364;28;20245;-55
2021/03/23 13:03:48;;;;;;;32.47;22.00;;;;;;;9.26;58.99;102291.66;6183013;28;20629;-49
2021/03/23 13:07:15;;;;;;;27.90;20.77;;;;;;;9.98;58.88;102294.75;6189403;28;20217;-53
2021/03/23 13:10:38;;;;;;;29.90;23.23;;;;;;;9.79;56.26;102295.25;6179164;28;20241;-56
2021/03/23 13:14:02;;;;;;;35.33;27.27;;;;;;;8.80;59.56;102308.91;6185978;28;20229;-59
2021/03/23 13:17:23;;;;;;;26.30;21.97;;;;;;;8.73;59.94;102301.81;6196965;28;20236;-58
2021/03/23 13:20:44;;;;;;;27.13;24.23;;;;;;;9.25;58.59;102300.31;6197742;28;20389;-57
2021/03/23 13:24:19;;;;;;;30.00;23.83;;;;;;;8.33;59.85;102287.00;6196144;28;20567;-55
2021/03/23 13:27:39;;;;;;;32.73;24.07;;;;;;;8.65;59.39;102287.78;6195369;28;20221;-55
2021/03/23 13:31:00;;;;;;;30.50;23.03;;;;;;;8.70;59.45;102293.94;6196595;28;20233;-58
2021/03/23 13:34:23;;;;;;;34.80;21.97;;;;;;;8.83;59.32;102287.31;6202873;28;20225;-53
2021/03/23 13:37:45;;;;;;;27.83;23.07;;;;;;;9.28;58.05;102289.09;6205990;28;20503;-57
2021/03/23 13:41:05;;;;;;;28.53;22.27;;;;;;;9.17;57.99;102281.09;6203641;28;20233;-57
2021/03/23 13:44:39;;;;;;;27.33;21.53;;;;;;;8.74;58.81;102294.91;6198904;28;20233;-55
2021/03/23 13:48:01;;;;;;;26.17;22.67;;;;;;;9.11;57.45;102286.19;6204993;28;20228;-56
2021/03/23 13:51:22;;;;;;;28.60;23.43;;;;;;;8.52;59.16;102283.16;6200670;28;20228;-53
2021/03/23 13:54:43;;;;;;;32.27;23.20;;;;;;;8.62;59.71;102290.31;6198579;28;20321;-56
2021/03/23 13:58:04;;;;;;;28.13;21.40;;;;;;;8.67;59.22;102289.56;6199356;28;20273;-58
2021/03/23 14:01:24;;;;;;;29.40;20.90;;;;;;;8.75;59.29;102291.47;6196030;28;20244;-57
2021/03/23 14:04:46;;;;;;;28.93;21.70;;;;;;;8.41;60.31;102286.41;6199042;28;20249;-58
2021/03/23 14:08:12;;;;;;;27.57;22.30;;;;;;;8.69;59.98;102287.00;6189635;28;20233;-57
2021/03/23 14:11:34;;;;;;;35.60;21.97;;;;;;;8.46;60.34;102283.91;6201026;28;20234;-56
2021/03/23 14:14:55;;;;;;;25.83;20.67;;;;;;;8.76;59.38;102291.50;6195154;28;20237;-58
2021/03/23 14:18:19;;;;;;;27.70;19.93;;;;;;;8.96;58.69;102280.66;6201455;28;20229;-55
2021/03/23 14:21:41;;;;;;;24.90;20.73;;;;;;;8.58;59.65;102280.69;6202023;28;20634;-56
2021/03/23 14:25:19;;;;;;;26.53;20.03;;;;;;;8.79;58.67;102285.50;6200964;28;20260;-55
2021/03/23 14:28:42;;;;;;;22.27;17.93;;;;;;;8.37;59.51;102284.50;6202473;28;20237;-57
2021/03/23 14:32:04;;;;;;;19.87;16.00;;;;;;;8.13;59.65;102278.75;6197285;28;20237;-54
2021/03/23 14:35:24;;;;;;;21.70;16.53;;;;;;;8.75;58.13;102287.16;6203279;28;20424;-55
2021/03/23 14:38:46;;;;;;;19.77;14.93;;;;;;;9.15;56.74;102282.78;6203038;28;22747;-53
2021/03/23 14:42:12;;;;;;;14.70;13.03;;;;;;;9.19;56.04;102279.41;6198108;28;20622;-52
2021/03/23 14:45:34;;;;;;;20.40;13.73;;;;;;;9.35;56.10;102282.31;6199585;28;22493;-55
2021/03/23 14:48:54;;;;;;;21.37;16.20;;;;;;;9.00;58.54;102279.88;6199734;28;20405;-57
2021/03/23 14:52:19;;;;;;;19.93;14.33;;;;;;;9.69;56.93;102282.94;6199704;28;20592;-52
2021/03/23 14:55:41;;;;;;;18.43;14.10;;;;;;;9.90;56.65;102275.50;6204184;28;20305;-55
2021/03/23 14:59:02;;;;;;;23.77;15.27;;;;;;;8.69;58.33;102281.81;6200778;28;20233;-55
2021/03/23 15:02:23;;;;;;;18.63;14.03;;;;;;;9.36;56.36;102281.44;6198753;28;20312;-58
2021/03/23 15:05:43;;;;;;;24.37;18.33;;;;;;;9.07;57.38;102284.34;6202097;28;20712;-58
2021/03/23 15:09:13;;;;;;;27.27;18.70;;;;;;;8.80;58.39;102280.34;6204749;28;20300;-54
2021/03/23 15:12:34;;;;;;;30.03;19.20;;;;;;;8.96;57.48;102280.66;6199240;28;20320;-57
2021/03/23 15:15:56;;;;;;;22.97;17.83;;;;;;;8.26;59.91;102276.50;6197890;28;20230;-55
2021/03/23 15:19:16;;;;;;;24.83;19.77;;;;;;;8.83;58.79;102274.31;6205749;28;20233;-55
2021/03/23 15:22:37;;;;;;;25.30;18.53;;;;;;;8.76;58.66;102281.13;6204317;28;20233;-61
2021/03/23 15:25:57;;;;;;;20.33;17.37;;;;;;;8.96;58.56;102278.06;6194198;28;20230;-56
2021/03/23 15:29:21;;;;;;;20.40;17.03;;;;;;;8.89;58.74;102281.38;6195522;28;20218;-57
2021/03/23 15:32:41;;;;;;;18.60;16.60;;;;;;;8.59;59.21;102279.88;6198578;28;20628;-58
2021/03/23 15:36:02;;;;;;;25.53;17.70;;;;;;;8.44;60.23;102277.78;6195275;28;20234;-53
2021/03/23 15:39:28;;;;;;;24.50;17.90;;;;;;;8.69;59.35;102271.44;6194330;28;20237;-56
2021/03/23 15:42:48;;;;;;;18.30;16.40;;;;;;;8.94;59.10;102271.97;6197334;28;20237;-54
2021/03/23 15:46:09;;;;;;;24.47;16.80;;;;;;;8.48;59.99;102266.63;6194537;28;20639;-52
2021/03/23 15:49:30;;;;;;;23.57;17.77;;;;;;;8.65;59.94;102261.81;6196256;28;20233;-53
2021/03/23 15:52:51;;;;;;;20.53;17.03;;;;;;;8.47;60.32;102265.75;6193711;28;20581;-55